Time;durP1;ratioP1;P1;durP2;ratioP2;P2;SDS_P1;SDS_P2;PMS_P1;PMS_P2;Temp;Humidity;BMP_temperature;BMP_pressure;BME280_temperature;BME280_humidity;BME280_pressure;Samples;Min_cycle;Max_cycle;Signal;HPM_P1;HPM_P2
2022/04/12 00:00:34;;;;;;;;;;;13.60;99.90;;;;;;5056050;28;19904;-66
2022/04/12 00:03:00;;;;;;;;;;;13.40;99.90;;;;;;5055710;28;19944;-66
2022/04/12 00:05:25;;;;;;;;;;;13.40;99.90;;;;;;5055653;28;20335;-66
2022/04/12 00:07:51;;;;;;;;;;;13.50;99.90;;;;;;5055907;28;19916;-66
2022/04/12 00:10:16;;;;;;;;;;;13.50;99.90;;;;;;5055604;28;20290;-66
2022/04/12 00:12:43;;;;;;;;;;;13.50;99.90;;;;;;5055529;28;20055;-66
2022/04/12 00:15:09;;;;;;;;;;;13.40;99.90;;;;;;5055394;28;19954;-65
2022/04/12 00:20:19;;;;;;;;;;;13.50;99.90;;;;;;5041231;28;19928;-66
2022/04/12 00:22:45;;;;;;;;;;;13.60;99.90;;;;;;5055640;28;20355;-66
2022/04/12 00:25:11;;;;;;;;;;;13.50;99.90;;;;;;5054982;28;20374;-65
2022/04/12 00:27:37;;;;;;;;;;;13.70;99.90;;;;;;5055276;28;19912;-67
2022/04/12 00:30:04;;;;;;;;;;;13.60;99.90;;;;;;5055768;28;20382;-65
2022/04/12 00:32:29;;;;;;;;;;;13.70;99.90;;;;;;5055020;28;19909;-65
2022/04/12 00:34:55;;;;;;;;;;;13.70;99.90;;;;;;5055126;28;19958;-65
2022/04/12 00:37:20;;;;;;;;;;;13.80;99.90;;;;;;5055060;28;20373;-67
2022/04/12 00:39:46;;;;;;;;;;;13.90;99.90;;;;;;5055009;28;19947;-66
2022/04/12 00:42:11;;;;;;;;;;;14.00;99.90;;;;;;5055253;28;19905;-66
2022/04/12 00:44:37;;;;;;;;;;;14.10;99.90;;;;;;5054902;28;19912;-66
2022/04/12 00:47:02;;;;;;;;;;;14.10;99.90;;;;;;5055214;28;19915;-66
2022/04/12 00:49:28;;;;;;;;;;;14.10;99.90;;;;;;5054805;28;19927;-66
2022/04/12 00:51:54;;;;;;;;;;;14.10;99.90;;;;;;5055327;28;19904;-66
2022/04/12 00:54:21;;;;;;;;;;;14.10;99.90;;;;;;5054665;28;20010;-65
2022/04/12 00:56:47;;;;;;;;;;;14.00;99.90;;;;;;5054971;28;19905;-67
2022/04/12 00:59:13;;;;;;;;;;;14.00;99.90;;;;;;5054675;28;19908;-65
2022/04/12 01:01:39;;;;;;;;;;;13.90;99.90;;;;;;5054615;28;19927;-67
2022/04/12 01:04:04;;;;;;;;;;;13.80;99.90;;;;;;5054578;28;19905;-65
2022/04/12 01:06:30;;;;;;;;;;;13.70;99.90;;;;;;5054489;28;20436;-66
2022/04/12 01:08:55;;;;;;;;;;;13.60;99.90;;;;;;5054726;28;19912;-67
2022/04/12 01:11:21;;;;;;;;;;;13.50;99.90;;;;;;5054392;28;19955;-66
2022/04/12 01:13:47;;;;;;;;;;;13.40;99.90;;;;;;5054335;28;20284;-66
2022/04/12 01:16:12;;;;;;;;;;;13.30;99.90;;;;;;5054528;28;20342;-65
2022/04/12 01:18:40;;;;;;;;;;;13.20;99.90;;;;;;5054250;28;19904;-66
2022/04/12 01:21:06;;;;;;;;;;;13.20;99.90;;;;;;5054517;28;19905;-66
2022/04/12 01:23:33;;;;;;;;;;;13.20;99.90;;;;;;5054074;28;20462;-66
2022/04/12 01:25:59;;;;;;;;;;;13.20;99.90;;;;;;5053600;28;20348;-65
2022/04/12 01:28:25;;;;;;;;;;;13.30;99.90;;;;;;5054390;28;19954;-66
2022/04/12 01:30:51;;;;;;;;;;;13.30;99.90;;;;;;5054072;28;19911;-65
2022/04/12 01:33:16;;;;;;;;;;;13.20;99.90;;;;;;5054170;28;19909;-66
2022/04/12 01:35:42;;;;;;;;;;;13.20;99.90;;;;;;5053967;28;19977;-66
2022/04/12 01:38:07;;;;;;;;;;;13.20;99.90;;;;;;5053953;28;20282;-65
2022/04/12 01:40:33;;;;;;;;;;;13.20;99.90;;;;;;5054414;28;19991;-67
2022/04/12 01:42:58;;;;;;;;;;;13.30;99.90;;;;;;5053884;28;20008;-66
2022/04/12 01:45:27;;;;;;;;;;;13.30;99.90;;;;;;5054122;28;20278;-65
2022/04/12 01:47:53;;;;;;;;;;;13.30;99.90;;;;;;5053793;28;19963;-65
2022/04/12 01:50:18;;;;;;;;;;;13.40;99.90;;;;;;5054077;28;19913;-66
2022/04/12 02:14:07;;;;;;;;;;;13.20;99.90;;;;;;5053931;28;19954;-66
2022/04/12 02:16:34;;;;;;;;;;;13.20;99.90;;;;;;5053493;28;19909;-65
2022/04/12 02:19:00;;;;;;;;;;;13.20;99.90;;;;;;5035388;28;19905;-66
2022/04/12 02:21:25;;;;;;;;;;;13.30;99.90;;;;;;5053685;28;20270;-66
2022/04/12 02:23:51;;;;;;;;;;;13.30;99.90;;;;;;5053209;28;19924;-65
2022/04/12 02:26:16;;;;;;;;;;;13.40;99.90;;;;;;5053361;28;19904;-66
2022/04/12 02:28:42;;;;;;;;;;;13.50;99.90;;;;;;5053915;28;19904;-66
2022/04/12 02:31:07;;;;;;;;;;;13.50;99.90;;;;;;5053340;28;19905;-65
2022/04/12 02:33:33;;;;;;;;;;;13.40;99.90;;;;;;5053547;28;19912;-65
2022/04/12 02:35:58;;;;;;;;;;;13.40;99.90;;;;;;5053335;28;20363;-65
2022/04/12 02:38:24;;;;;;;;;;;13.30;99.90;;;;;;5057013;28;19905;-66
2022/04/12 02:40:49;;;;;;;;;;;13.30;99.90;;;;;;5057280;28;19909;-66
2022/04/12 02:43:15;;;;;;;;;;;13.10;99.90;;;;;;5057267;28;19968;-66
2022/04/12 02:45:40;;;;;;;;;;;13.10;99.90;;;;;;5057193;28;19908;-66
2022/04/12 02:48:08;;;;;;;;;;;13.00;99.90;;;;;;5057148;28;19980;-66
2022/04/12 02:50:34;;;;;;;;;;;13.00;99.90;;;;;;5057041;28;19908;-66
2022/04/12 02:53:00;;;;;;;;;;;12.90;99.90;;;;;;5056960;28;19908;-66
2022/04/12 02:55:25;;;;;;;;;;;12.90;99.90;;;;;;5056963;28;19905;-67
2022/04/12 02:57:51;;;;;;;;;;;12.90;99.90;;;;;;5057195;28;19905;-65
2022/04/12 03:00:17;;;;;;;;;;;12.80;99.90;;;;;;5056902;28;19904;-66
2022/04/12 03:02:42;;;;;;;;;;;12.90;99.90;;;;;;5057417;28;19905;-66
2022/04/12 03:05:08;;;;;;;;;;;12.80;99.90;;;;;;5056783;28;19908;-65
2022/04/12 03:07:33;;;;;;;;;;;12.80;99.90;;;;;;5056797;28;19958;-65
2022/04/12 03:09:59;;;;;;;;;;;12.80;99.90;;;;;;5056720;28;19971;-66
2022/04/12 03:12:24;;;;;;;;;;;12.80;99.90;;;;;;5056617;28;19935;-65
2022/04/12 03:14:50;;;;;;;;;;;12.70;99.90;;;;;;5056857;28;20326;-65
2022/04/12 03:17:15;;;;;;;;;;;12.70;99.90;;;;;;5056605;28;19966;-65
2022/04/12 03:19:41;;;;;;;;;;;12.70;99.90;;;;;;5056523;28;19904;-66
2022/04/12 03:22:07;;;;;;;;;;;12.70;99.90;;;;;;5056487;28;19909;-65
2022/04/12 03:24:33;;;;;;;;;;;12.60;99.90;;;;;;5056287;28;20441;-66
2022/04/12 03:26:58;;;;;;;;;;;12.50;99.90;;;;;;5056420;28;19940;-65
2022/04/12 03:29:27;;;;;;;;;;;12.50;99.90;;;;;;5056600;28;19913;-66
2022/04/12 03:31:53;;;;;;;;;;;12.50;99.90;;;;;;5056325;28;19909;-66
2022/04/12 03:34:19;;;;;;;;;;;12.40;99.90;;;;;;5056220;28;19977;-65
2022/04/12 03:36:45;;;;;;;;;;;12.40;99.90;;;;;;5056192;28;19905;-65
2022/04/12 03:39:17;;;;;;;;;;;12.30;99.90;;;;;;5056454;28;19911;-65
2022/04/12 03:41:43;;;;;;;;;;;12.30;99.90;;;;;;5056453;28;19905;-67
2022/04/12 03:44:08;;;;;;;;;;;12.30;99.90;;;;;;5056085;28;20328;-65
2022/04/12 03:46:34;;;;;;;;;;;12.20;99.90;;;;;;5056298;28;20283;-66
2022/04/12 03:48:59;;;;;;;;;;;12.20;99.90;;;;;;5055484;28;19912;-66
2022/04/12 03:51:25;;;;;;;;;;;12.20;99.90;;;;;;5055952;28;19909;-65
2022/04/12 03:53:50;;;;;;;;;;;12.20;99.90;;;;;;5056130;28;20361;-65
2022/04/12 03:56:16;;;;;;;;;;;12.20;99.90;;;;;;5055875;28;19905;-65
2022/04/12 03:58:41;;;;;;;;;;;12.20;99.90;;;;;;5055857;28;20275;-66
2022/04/12 04:01:07;;;;;;;;;;;12.20;99.90;;;;;;5056034;28;19911;-67
2022/04/12 04:03:35;;;;;;;;;;;12.20;99.90;;;;;;5055725;28;19909;-66
2022/04/12 04:06:01;;;;;;;;;;;12.20;99.90;;;;;;5055887;28;19958;-65
2022/04/12 04:08:27;;;;;;;;;;;12.20;99.90;;;;;;5055910;28;19991;-66
2022/04/12 04:10:52;;;;;;;;;;;12.20;99.90;;;;;;5055640;28;20358;-66
2022/04/12 04:13:18;;;;;;;;;;;12.20;99.90;;;;;;5055545;28;20423;-65
2022/04/12 04:15:45;;;;;;;;;;;12.20;99.90;;;;;;5055548;28;20286;-66
2022/04/12 04:18:11;;;;;;;;;;;12.20;99.90;;;;;;5055754;28;19905;-65
2022/04/12 04:20:37;;;;;;;;;;;12.30;99.90;;;;;;5055419;28;19911;-65
2022/04/12 04:23:03;;;;;;;;;;;12.20;99.90;;;;;;5055494;28;20005;-65
2022/04/12 04:25:28;;;;;;;;;;;12.20;99.90;;;;;;5055166;28;19921;-66
2022/04/12 04:27:54;;;;;;;;;;;12.20;99.90;;;;;;5055294;28;19904;-65
2022/04/12 04:30:20;;;;;;;;;;;12.20;99.90;;;;;;5055233;28;19905;-66
2022/04/12 04:32:46;;;;;;;;;;;12.20;99.90;;;;;;5055114;28;19916;-65
2022/04/12 04:35:12;;;;;;;;;;;12.10;99.90;;;;;;5055147;28;19904;-65
2022/04/12 04:37:50;;;;;;;;;;;12.10;99.90;;;;;;5055382;28;19904;-66
2022/04/12 04:40:16;;;;;;;;;;;12.20;99.90;;;;;;5055007;28;19912;-67
2022/04/12 04:42:42;;;;;;;;;;;12.20;99.90;;;;;;5055284;28;19908;-66
2022/04/12 04:45:08;;;;;;;;;;;12.10;99.90;;;;;;5054965;28;19973;-66
2022/04/12 04:47:34;;;;;;;;;;;12.20;99.90;;;;;;5055528;28;20342;-65
2022/04/12 04:50:01;;;;;;;;;;;12.20;99.90;;;;;;5054857;28;19951;-67
2022/04/12 04:52:26;;;;;;;;;;;12.10;99.90;;;;;;5054754;28;20286;-66
2022/04/12 04:54:52;;;;;;;;;;;12.10;99.90;;;;;;5054995;28;19904;-67
2022/04/12 04:57:17;;;;;;;;;;;12.10;99.90;;;;;;5054709;28;20400;-65
2022/04/12 04:59:43;;;;;;;;;;;12.10;99.90;;;;;;5054080;28;19912;-66
2022/04/12 05:02:08;;;;;;;;;;;12.00;99.90;;;;;;5054591;28;20259;-67
2022/04/12 05:04:34;;;;;;;;;;;12.10;99.90;;;;;;5054547;28;19905;-66
2022/04/12 05:06:59;;;;;;;;;;;12.00;99.90;;;;;;5054515;28;19954;-66
2022/04/12 05:09:25;;;;;;;;;;;12.00;99.90;;;;;;5054723;28;19944;-66
2022/04/12 05:11:50;;;;;;;;;;;11.90;99.90;;;;;;5054418;28;19999;-65
2022/04/12 05:14:16;;;;;;;;;;;11.80;99.90;;;;;;5054261;28;19978;-66
2022/04/12 05:16:41;;;;;;;;;;;11.70;99.90;;;;;;5054347;28;19911;-67
2022/04/12 05:19:07;;;;;;;;;;;11.70;99.90;;;;;;5054615;28;20007;-66
2022/04/12 05:21:32;;;;;;;;;;;11.70;99.90;;;;;;5054225;28;20378;-65
2022/04/12 05:23:58;;;;;;;;;;;11.60;99.90;;;;;;5054055;28;19924;-66
2022/04/12 05:26:23;;;;;;;;;;;11.60;99.90;;;;;;5054434;28;19905;-66
2022/04/12 05:28:49;;;;;;;;;;;11.60;99.90;;;;;;5054084;28;19904;-65
2022/04/12 05:31:14;;;;;;;;;;;11.60;99.90;;;;;;5054362;28;19958;-65
2022/04/12 05:33:40;;;;;;;;;;;11.70;99.90;;;;;;5053929;28;19909;-65
2022/04/12 05:36:06;;;;;;;;;;;11.70;99.90;;;;;;5054247;28;19904;-67
2022/04/12 05:38:31;;;;;;;;;;;11.80;99.90;;;;;;5053938;28;19905;-66
2022/04/12 05:40:57;;;;;;;;;;;11.80;99.90;;;;;;5053931;28;19971;-66
2022/04/12 05:43:22;;;;;;;;;;;11.90;99.90;;;;;;5054150;28;20000;-65
2022/04/12 05:45:48;;;;;;;;;;;11.90;99.90;;;;;;5054084;28;19904;-66
2022/04/12 05:48:13;;;;;;;;;;;11.90;99.90;;;;;;5053800;28;19966;-66
2022/04/12 05:50:39;;;;;;;;;;;11.90;99.90;;;;;;5054032;28;19909;-67
2022/04/12 05:53:04;;;;;;;;;;;12.00;99.90;;;;;;5053647;28;19909;-66
2022/04/12 05:55:30;;;;;;;;;;;12.00;99.90;;;;;;5053997;28;19955;-66
2022/04/12 05:57:59;;;;;;;;;;;12.00;99.90;;;;;;5053669;28;19911;-65
2022/04/12 06:00:26;;;;;;;;;;;12.00;99.90;;;;;;5053952;28;19943;-66
2022/04/12 06:02:52;;;;;;;;;;;12.00;99.90;;;;;;5053961;28;19904;-65
2022/04/12 06:05:18;;;;;;;;;;;12.00;99.90;;;;;;5053593;28;19905;-67
2022/04/12 06:07:44;;;;;;;;;;;12.10;99.90;;;;;;5054149;28;19908;-65
2022/04/12 06:10:10;;;;;;;;;;;12.20;99.90;;;;;;5053513;28;19905;-65
2022/04/12 06:12:36;;;;;;;;;;;12.20;99.90;;;;;;5053612;28;19908;-66
2022/04/12 06:15:02;;;;;;;;;;;12.20;99.90;;;;;;5053422;28;19988;-66
2022/04/12 06:17:29;;;;;;;;;;;12.20;99.90;;;;;;5054037;28;20381;-67
2022/04/12 06:20:05;;;;;;;;;;;12.30;99.90;;;;;;5053425;28;20336;-67
2022/04/12 06:22:31;;;;;;;;;;;12.70;99.90;;;;;;5053366;28;19905;-66
2022/04/12 06:24:57;;;;;;;;;;;13.20;99.90;;;;;;5053050;28;19917;-65
2022/04/12 06:27:29;;;;;;;;;;;13.40;99.90;;;;;;5053420;28;19904;-65
2022/04/12 06:29:55;;;;;;;;;;;13.60;99.90;;;;;;5053372;28;19904;-66
2022/04/12 06:32:20;;;;;;;;;;;13.70;99.90;;;;;;5053783;28;19999;-66
2022/04/12 06:34:46;;;;;;;;;;;13.70;99.90;;;;;;5053298;28;19905;-65
2022/04/12 06:37:11;;;;;;;;;;;13.50;99.90;;;;;;5053582;28;19912;-65
2022/04/12 06:39:37;;;;;;;;;;;13.80;99.90;;;;;;5053232;28;20396;-66
2022/04/12 06:42:02;;;;;;;;;;;14.50;99.90;;;;;;5053498;28;19958;-66
2022/04/12 06:44:32;;;;;;;;;;;14.70;99.90;;;;;;5053496;28;19912;-67
2022/04/12 06:46:58;;;;;;;;;;;14.30;99.90;;;;;;5053759;28;19912;-65
2022/04/12 06:49:23;;;;;;;;;;;14.00;99.90;;;;;;5053419;28;20293;-66
2022/04/12 06:51:49;;;;;;;;;;;13.70;99.90;;;;;;5053717;28;19912;-66
2022/04/12 06:54:14;;;;;;;;;;;13.40;99.90;;;;;;5053016;28;19908;-66
2022/04/12 06:56:40;;;;;;;;;;;13.30;99.90;;;;;;5053070;28;19916;-66
2022/04/12 06:59:05;;;;;;;;;;;13.20;99.90;;;;;;5053396;28;19908;-66
2022/04/12 07:01:31;;;;;;;;;;;13.20;99.90;;;;;;5053075;28;19905;-66
2022/04/12 07:03:56;;;;;;;;;;;13.30;99.90;;;;;;5053312;28;20251;-65
2022/04/12 07:06:22;;;;;;;;;;;13.30;99.90;;;;;;5052934;28;20358;-66
2022/04/12 07:08:47;;;;;;;;;;;13.30;99.90;;;;;;5050875;28;19915;-69
2022/04/12 07:11:13;;;;;;;;;;;13.30;99.90;;;;;;5033335;28;19909;-70
2022/04/12 07:13:38;;;;;;;;;;;13.20;99.90;;;;;;5022419;28;19908;-67
2022/04/12 07:16:04;;;;;;;;;;;13.20;99.90;;;;;;5052848;28;19909;-73
2022/04/12 07:18:30;;;;;;;;;;;13.20;99.90;;;;;;5035019;28;19905;-74
2022/04/12 07:20:56;;;;;;;;;;;13.20;99.90;;;;;;5053433;28;20412;-73
2022/04/12 07:23:22;;;;;;;;;;;13.10;99.90;;;;;;5053818;28;19908;-69
2022/04/12 07:25:47;;;;;;;;;;;13.10;99.90;;;;;;5055645;28;20286;-69
2022/04/12 07:28:13;;;;;;;;;;;13.00;99.90;;;;;;5056420;28;19916;-68
2022/04/12 07:30:38;;;;;;;;;;;13.00;99.90;;;;;;5055755;28;19908;-72
2022/04/12 07:33:04;;;;;;;;;;;12.90;99.90;;;;;;5055897;28;20268;-70
2022/04/12 07:35:30;;;;;;;;;;;12.90;99.90;;;;;;5037956;28;19908;-70
2022/04/12 07:37:56;;;;;;;;;;;12.90;99.90;;;;;;5056249;28;19927;-76
2022/04/12 07:40:21;;;;;;;;;;;12.80;99.90;;;;;;5055227;28;20358;-75
2022/04/12 07:42:47;;;;;;;;;;;12.80;99.90;;;;;;5055749;28;19963;-71
2022/04/12 07:45:13;;;;;;;;;;;12.80;99.90;;;;;;5056260;28;19911;-73
2022/04/12 07:47:38;;;;;;;;;;;12.80;99.90;;;;;;5056044;28;19912;-73
2022/04/12 07:50:05;;;;;;;;;;;12.80;99.90;;;;;;5055866;28;19916;-74
2022/04/12 07:52:30;;;;;;;;;;;12.80;99.90;;;;;;5054891;28;19905;-69
2022/04/12 07:54:56;;;;;;;;;;;12.70;99.90;;;;;;5056755;28;19912;-70
2022/04/12 07:57:21;;;;;;;;;;;12.70;99.90;;;;;;5056199;28;19909;-69
2022/04/12 07:59:47;;;;;;;;;;;12.70;99.90;;;;;;5055460;28;20013;-77
2022/04/12 08:02:12;;;;;;;;;;;12.70;99.90;;;;;;5055546;28;19912;-73
2022/04/12 08:04:41;;;;;;;;;;;12.80;99.90;;;;;;5056125;28;19944;-71
2022/04/12 08:07:06;;;;;;;;;;;12.80;99.90;;;;;;5056386;28;19908;-69
2022/04/12 08:09:32;;;;;;;;;;;12.80;99.90;;;;;;5054792;28;19908;-73
2022/04/12 08:11:58;;;;;;;;;;;12.90;99.90;;;;;;5054104;28;19905;-72
2022/04/12 08:14:23;;;;;;;;;;;13.00;99.90;;;;;;5055391;28;19913;-68
2022/04/12 08:16:49;;;;;;;;;;;13.00;99.90;;;;;;5055841;28;19967;-71
2022/04/12 08:19:14;;;;;;;;;;;13.00;99.90;;;;;;5055437;28;20437;-75
2022/04/12 08:21:41;;;;;;;;;;;13.20;99.90;;;;;;5055800;28;19908;-72
2022/04/12 08:24:08;;;;;;;;;;;13.30;99.90;;;;;;5054827;28;19916;-71
2022/04/12 08:26:35;;;;;;;;;;;13.40;99.90;;;;;;5055556;28;19966;-70
2022/04/12 08:29:01;;;;;;;;;;;13.60;99.90;;;;;;5055609;28;19931;-72
2022/04/12 08:31:26;;;;;;;;;;;13.80;99.90;;;;;;5055142;28;19909;-71
2022/04/12 08:33:52;;;;;;;;;;;14.00;99.90;;;;;;5055772;28;19909;-69
2022/04/12 08:36:20;;;;;;;;;;;14.20;99.90;;;;;;5054546;28;19912;-72
2022/04/12 08:38:46;;;;;;;;;;;14.20;99.90;;;;;;5055406;28;20277;-70
2022/04/12 08:41:13;;;;;;;;;;;14.20;99.90;;;;;;5055581;28;19909;-71
2022/04/12 08:43:40;;;;;;;;;;;14.30;99.90;;;;;;5055015;28;19954;-70
2022/04/12 08:46:06;;;;;;;;;;;14.20;99.90;;;;;;5054394;28;19905;-75
2022/04/12 08:48:32;;;;;;;;;;;14.20;99.90;;;;;;5054903;28;19954;-75
2022/04/12 08:50:58;;;;;;;;;;;14.20;99.90;;;;;;5054222;28;19905;-71
2022/04/12 08:53:24;;;;;;;;;;;14.10;99.90;;;;;;5054171;28;19924;-67
2022/04/12 08:55:49;;;;;;;;;;;14.10;99.90;;;;;;5036866;28;19904;-69
2022/04/12 08:58:15;;;;;;;;;;;14.10;99.90;;;;;;5054529;28;19904;-67
2022/04/12 09:00:40;;;;;;;;;;;14.10;99.90;;;;;;5055103;28;19927;-66
2022/04/12 09:03:06;;;;;;;;;;;14.10;99.90;;;;;;5054860;28;19987;-67
2022/04/12 09:05:34;;;;;;;;;;;14.20;99.90;;;;;;5055196;28;20439;-67
2022/04/12 09:08:00;;;;;;;;;;;14.20;99.90;;;;;;5054519;28;19999;-67
2022/04/12 09:10:35;;;;;;;;;;;14.10;99.90;;;;;;5054782;28;20339;-67
2022/04/12 09:13:14;;;;;;;;;;;14.10;99.90;;;;;;5054374;28;20329;-67
2022/04/12 09:15:43;;;;;;;;;;;14.10;99.90;;;;;;5054881;28;19908;-66
2022/04/12 09:18:10;;;;;;;;;;;14.10;99.90;;;;;;5054637;28;19944;-68
2022/04/12 09:20:35;;;;;;;;;;;14.10;99.90;;;;;;5054310;28;19905;-68
2022/04/12 09:23:01;;;;;;;;;;;14.10;99.90;;;;;;5054190;28;20377;-67
2022/04/12 09:25:27;;;;;;;;;;;14.10;99.90;;;;;;5053767;28;19924;-67
2022/04/12 09:27:55;;;;;;;;;;;14.10;99.90;;;;;;5054162;28;19909;-68
2022/04/12 09:30:21;;;;;;;;;;;14.10;99.90;;;;;;5054126;28;19904;-67
2022/04/12 09:32:47;;;;;;;;;;;14.20;99.90;;;;;;5054019;28;20259;-66
2022/04/12 09:35:13;;;;;;;;;;;14.10;99.90;;;;;;5054497;28;19904;-68
2022/04/12 09:37:40;;;;;;;;;;;14.10;99.90;;;;;;5054029;28;20278;-67
2022/04/12 09:40:06;;;;;;;;;;;14.20;99.90;;;;;;5053997;28;19905;-70
2022/04/12 09:42:37;;;;;;;;;;;14.10;99.90;;;;;;5054400;28;19904;-70
2022/04/12 09:45:04;;;;;;;;;;;14.10;99.90;;;;;;5053722;28;19909;-68
2022/04/12 09:47:33;;;;;;;;;;;14.00;99.90;;;;;;5053505;28;19944;-67
2022/04/12 09:49:59;;;;;;;;;;;14.10;99.90;;;;;;5054354;28;19911;-68
2022/04/12 09:52:24;;;;;;;;;;;14.00;99.90;;;;;;5053836;28;19908;-67
2022/04/12 09:54:51;;;;;;;;;;;14.00;99.90;;;;;;5053786;28;20371;-68
2022/04/12 09:57:17;;;;;;;;;;;14.10;99.90;;;;;;5053993;28;19904;-68
2022/04/12 09:59:44;;;;;;;;;;;14.10;99.90;;;;;;5053867;28;19950;-67
2022/04/12 10:02:11;;;;;;;;;;;14.20;99.90;;;;;;5053825;28;19944;-68
2022/04/12 10:04:38;;;;;;;;;;;14.30;99.90;;;;;;5053124;28;19912;-68
2022/04/12 10:07:04;;;;;;;;;;;14.40;99.90;;;;;;5052604;28;20371;-67
2022/04/12 10:09:30;;;;;;;;;;;14.40;99.90;;;;;;5053802;28;19905;-67
2022/04/12 10:11:56;;;;;;;;;;;14.50;99.90;;;;;;5053457;28;19911;-68
2022/04/12 10:14:22;;;;;;;;;;;14.60;99.90;;;;;;5053360;28;20352;-69
2022/04/12 10:16:47;;;;;;;;;;;14.50;99.90;;;;;;5035537;28;19966;-67
2022/04/12 10:19:13;;;;;;;;;;;14.50;99.90;;;;;;5054017;28;19905;-68
2022/04/12 10:21:38;;;;;;;;;;;14.60;99.90;;;;;;5053424;28;19958;-67
2022/04/12 10:24:06;;;;;;;;;;;14.60;99.90;;;;;;5053372;28;19917;-67
2022/04/12 10:26:32;;;;;;;;;;;14.80;99.90;;;;;;5053665;28;19911;-67
2022/04/12 10:28:59;;;;;;;;;;;14.90;99.90;;;;;;5053390;28;19905;-67
2022/04/12 10:31:25;;;;;;;;;;;14.90;99.90;;;;;;5053379;28;19909;-68
2022/04/12 10:33:51;;;;;;;;;;;15.00;99.90;;;;;;5053807;28;19908;-67
2022/04/12 10:36:17;;;;;;;;;;;15.00;99.90;;;;;;5053316;28;20092;-69
2022/04/12 10:38:43;;;;;;;;;;;14.90;99.90;;;;;;5053876;28;19939;-67
2022/04/12 10:41:30;;;;;;;;;;;15.00;99.90;;;;;;5053279;28;19957;-69
2022/04/12 10:43:56;;;;;;;;;;;15.10;99.90;;;;;;5052845;28;20363;-67
2022/04/12 10:46:22;;;;;;;;;;;15.20;99.90;;;;;;5053769;28;19905;-67
2022/04/12 10:48:55;;;;;;;;;;;15.20;99.90;;;;;;5053153;28;19912;-68
2022/04/12 10:51:37;;;;;;;;;;;15.00;99.90;;;;;;5053703;28;19912;-69
2022/04/12 10:54:03;;;;;;;;;;;15.00;99.90;;;;;;5053372;28;19909;-69
2022/04/12 10:56:29;;;;;;;;;;;15.10;99.90;;;;;;5053383;28;19912;-69
2022/04/12 10:58:54;;;;;;;;;;;15.20;99.90;;;;;;5055609;28;20278;-68
2022/04/12 11:01:27;;;;;;;;;;;15.40;99.90;;;;;;5056937;28;19912;-68
2022/04/12 11:03:53;;;;;;;;;;;15.50;99.90;;;;;;5057394;28;20313;-67
2022/04/12 11:06:21;;;;;;;;;;;15.70;99.90;;;;;;5056847;28;19905;-68
2022/04/12 11:08:51;;;;;;;;;;;15.80;99.90;;;;;;5057080;28;20350;-69
2022/04/12 11:11:17;;;;;;;;;;;15.70;99.90;;;;;;5056788;28;20313;-68
2022/04/12 11:13:44;;;;;;;;;;;15.80;99.90;;;;;;5056622;28;20461;-67
2022/04/12 11:16:11;;;;;;;;;;;15.80;99.90;;;;;;5056687;28;19905;-66
2022/04/12 11:18:56;;;;;;;;;;;15.80;99.90;;;;;;5056910;28;19905;-65
2022/04/12 11:21:40;;;;;;;;;;;16.10;99.90;;;;;;5056849;28;19905;-66
2022/04/12 11:24:09;;;;;;;;;;;16.90;99.90;;;;;;5056342;28;20382;-66
2022/04/12 11:26:44;;;;;;;;;;;17.60;99.90;;;;;;5056495;28;20323;-66
2022/04/12 11:29:10;;;;;;;;;;;18.30;99.90;;;;;;5056448;28;19988;-67
2022/04/12 11:31:43;;;;;;;;;;;19.10;99.90;;;;;;5056705;28;20350;-66
2022/04/12 11:34:09;;;;;;;;;;;19.40;99.90;;;;;;5038358;28;19909;-66
2022/04/12 11:36:34;;;;;;;;;;;19.20;99.90;;;;;;5056346;28;20321;-66
2022/04/12 11:39:00;;;;;;;;;;;19.10;99.90;;;;;;5056272;28;20378;-66
2022/04/12 11:41:27;;;;;;;;;;;18.70;99.90;;;;;;5056460;28;19905;-66
2022/04/12 11:43:59;;;;;;;;;;;18.30;99.90;;;;;;5056187;28;19912;-67
2022/04/12 11:46:25;;;;;;;;;;;18.20;99.90;;;;;;5056662;28;19906;-66
2022/04/12 11:48:50;;;;;;;;;;;18.20;99.90;;;;;;5056002;28;19912;-66
2022/04/12 11:51:17;;;;;;;;;;;18.30;99.90;;;;;;5056586;28;19905;-65
2022/04/12 11:53:49;;;;;;;;;;;18.50;99.90;;;;;;5055886;28;19909;-68
2022/04/12 11:56:15;;;;;;;;;;;18.80;99.90;;;;;;5055894;28;20058;-66
2022/04/12 11:58:40;;;;;;;;;;;20.10;99.90;;;;;;5056178;28;20423;-66
2022/04/12 12:01:06;;;;;;;;;;;21.40;99.90;;;;;;5055842;28;20421;-66
2022/04/12 12:03:34;;;;;;;;;;;21.80;99.90;;;;;;5055822;28;19960;-66
2022/04/12 12:06:01;;;;;;;;;;;21.90;99.90;;;;;;5055777;28;19905;-66
2022/04/12 12:08:26;;;;;;;;;;;21.50;99.90;;;;;;5055353;28;19927;-66
2022/04/12 12:10:53;;;;;;;;;;;21.50;99.90;;;;;;5055953;28;19905;-67
2022/04/12 12:13:24;;;;;;;;;;;21.40;99.90;;;;;;5055500;28;19909;-66
2022/04/12 12:15:50;;;;;;;;;;;21.10;99.90;;;;;;5055484;28;19992;-67
2022/04/12 12:18:18;;;;;;;;;;;21.00;99.90;;;;;;5056051;28;20366;-66
2022/04/12 12:20:45;;;;;;;;;;;21.00;99.90;;;;;;5055463;28;19904;-67
2022/04/12 12:23:11;;;;;;;;;;;21.40;99.90;;;;;;5055257;28;19904;-66
2022/04/12 12:25:38;;;;;;;;;;;21.60;99.90;;;;;;5055328;28;19954;-66
2022/04/12 12:28:09;;;;;;;;;;;21.10;99.90;;;;;;5055869;28;19908;-68
2022/04/12 12:30:35;;;;;;;;;;;20.60;99.90;;;;;;5055585;28;19911;-66
2022/04/12 12:33:00;;;;;;;;;;;20.00;99.90;;;;;;5055181;28;19909;-66
2022/04/12 12:35:28;;;;;;;;;;;19.80;99.90;;;;;;5055770;28;19911;-66
2022/04/12 12:38:02;;;;;;;;;;;19.60;99.90;;;;;;5055163;28;19948;-66
2022/04/12 12:40:27;;;;;;;;;;;19.10;99.90;;;;;;5055119;28;20267;-66
2022/04/12 12:42:54;;;;;;;;;;;18.90;99.90;;;;;;5055597;28;19911;-66
2022/04/12 12:45:20;;;;;;;;;;;19.00;99.90;;;;;;5054962;28;19904;-68
2022/04/12 12:47:47;;;;;;;;;;;19.40;99.90;;;;;;5055501;28;19908;-67
2022/04/12 12:50:14;;;;;;;;;;;19.50;99.90;;;;;;5054905;28;19904;-66
2022/04/12 12:52:40;;;;;;;;;;;19.80;99.90;;;;;;5054787;28;20004;-66
2022/04/12 12:55:07;;;;;;;;;;;20.20;99.90;;;;;;5054798;28;20418;-66
2022/04/12 12:57:42;;;;;;;;;;;20.30;99.90;;;;;;5055304;28;19905;-66
2022/04/12 13:00:09;;;;;;;;;;;20.60;99.90;;;;;;5054974;28;19959;-66
2022/04/12 13:02:35;;;;;;;;;;;20.50;99.90;;;;;;5054913;28;19999;-66
2022/04/12 13:05:02;;;;;;;;;;;20.10;99.90;;;;;;5054595;28;20474;-66
2022/04/12 13:07:32;;;;;;;;;;;19.60;99.90;;;;;;5054794;28;19912;-65
2022/04/12 13:10:05;;;;;;;;;;;19.30;99.90;;;;;;5054507;28;19905;-66
2022/04/12 13:12:30;;;;;;;;;;;19.00;99.90;;;;;;5054566;28;19905;-66
2022/04/12 13:14:56;;;;;;;;;;;19.20;99.90;;;;;;5054384;28;20030;-70
2022/04/12 13:17:21;;;;;;;;;;;19.20;99.90;;;;;;5054920;28;19904;-65
2022/04/12 13:19:47;;;;;;;;;;;19.10;99.90;;;;;;5054529;28;19912;-65
2022/04/12 13:22:12;;;;;;;;;;;19.50;99.90;;;;;;5054127;28;19954;-65
2022/04/12 13:24:38;;;;;;;;;;;19.80;99.90;;;;;;5054227;28;20393;-65
2022/04/12 13:27:03;;;;;;;;;;;19.90;99.90;;;;;;5053945;28;19908;-65
2022/04/12 13:29:29;;;;;;;;;;;19.90;99.90;;;;;;5053893;28;19992;-65
2022/04/12 13:31:55;;;;;;;;;;;19.60;99.90;;;;;;5053850;28;19999;-65
2022/04/12 13:34:20;;;;;;;;;;;19.20;99.90;;;;;;5053806;28;19908;-65
2022/04/12 13:36:46;;;;;;;;;;;19.00;99.90;;;;;;5053858;28;19904;-65
2022/04/12 13:39:12;;;;;;;;;;;18.90;99.90;;;;;;5054279;28;19951;-66
2022/04/12 13:41:38;;;;;;;;;;;18.90;99.90;;;;;;5053949;28;20295;-66
2022/04/12 13:44:04;;;;;;;;;;;19.00;99.90;;;;;;5054210;28;19908;-65
2022/04/12 13:46:29;;;;;;;;;;;19.10;99.90;;;;;;5053899;28;19955;-65
2022/04/12 13:48:55;;;;;;;;;;;18.80;99.90;;;;;;5053781;28;20358;-65
2022/04/12 13:51:21;;;;;;;;;;;18.80;99.90;;;;;;5053689;28;20386;-65
2022/04/12 13:53:47;;;;;;;;;;;18.90;99.90;;;;;;5053157;28;19908;-65
2022/04/12 13:56:12;;;;;;;;;;;19.20;99.90;;;;;;5053630;28;20384;-65
2022/04/12 13:58:38;;;;;;;;;;;19.60;99.90;;;;;;5053642;28;20424;-66
2022/04/12 14:01:03;;;;;;;;;;;19.80;99.90;;;;;;5053589;28;20000;-66
2022/04/12 14:03:29;;;;;;;;;;;20.10;99.90;;;;;;5054056;28;19904;-65
2022/04/12 14:05:55;;;;;;;;;;;19.80;99.90;;;;;;5053599;28;19909;-66
2022/04/12 14:08:20;;;;;;;;;;;20.20;99.90;;;;;;5053848;28;19904;-65
2022/04/12 14:10:46;;;;;;;;;;;20.90;99.90;;;;;;5053543;28;19904;-65
2022/04/12 14:13:11;;;;;;;;;;;21.60;99.90;;;;;;5053427;28;19964;-65
2022/04/12 14:15:37;;;;;;;;;;;21.50;99.90;;;;;;5053496;28;19999;-65
2022/04/12 14:18:03;;;;;;;;;;;21.00;99.90;;;;;;5053484;28;19905;-65
2022/04/12 14:20:28;;;;;;;;;;;20.40;99.90;;;;;;5054022;28;19904;-65
2022/04/12 14:22:54;;;;;;;;;;;20.20;99.90;;;;;;5053387;28;19909;-65
2022/04/12 14:25:20;;;;;;;;;;;20.10;99.90;;;;;;5052987;28;19916;-65
2022/04/12 14:27:46;;;;;;;;;;;20.00;99.90;;;;;;5053648;28;19956;-65
2022/04/12 14:30:12;;;;;;;;;;;20.20;99.90;;;;;;5053373;28;19905;-65
2022/04/12 14:32:37;;;;;;;;;;;20.50;99.90;;;;;;5056058;28;19912;-65
2022/04/12 14:35:03;;;;;;;;;;;21.00;99.90;;;;;;5057761;28;19905;-65